Авиационная погода в Йоэнсуу

Регион: 
Погода METAR: 
EFJO 212250Z AUTO 08003KT CAVOK 03/M03 Q1014
Время наблюдения
2022-05-21T22:50:00Z
Температура C
3.0
Точка росы
-3.0
Направление ветра
80
Скорость ветра (узлы)
3
Метео видимость
6.21
Облачность
CAVOK
Нижняя граница облачности (футы)
Явления погоды
Условия полета
VFR